sensor_id;sensor_type;location;lat;lon;timestamp;pressure;altitude;pressure_sealevel;temperature;humidity
83195;BME280;73090;49.282;11.402;2023-12-20T00:01:33;96334.41;;;1.85;95.28
83195;BME280;73090;49.282;11.402;2023-12-20T00:05:35;96335.06;;;1.87;95.44
83195;BME280;73090;49.282;11.402;2023-12-20T00:09:39;96330.44;;;1.90;95.28
83195;BME280;73090;49.282;11.402;2023-12-20T00:13:41;96318.00;;;1.94;95.78
83195;BME280;73090;49.282;11.402;2023-12-20T00:17:43;96312.00;;;1.93;95.85
83195;BME280;73090;49.282;11.402;2023-12-20T00:21:45;96309.56;;;1.92;96.04
83195;BME280;73090;49.282;11.402;2023-12-20T00:25:47;96302.59;;;1.92;95.92
83195;BME280;73090;49.282;11.402;2023-12-20T00:29:49;96303.16;;;1.96;96.00
83195;BME280;73090;49.282;11.402;2023-12-20T00:33:51;96286.75;;;1.95;96.60
83195;BME280;73090;49.282;11.402;2023-12-20T00:37:54;96291.94;;;1.95;96.53
83195;BME280;73090;49.282;11.402;2023-12-20T00:41:56;96290.06;;;1.97;96.55
83195;BME280;73090;49.282;11.402;2023-12-20T00:45:57;96289.06;;;1.98;96.58
83195;BME280;73090;49.282;11.402;2023-12-20T00:50:02;96281.44;;;1.97;96.93
83195;BME280;73090;49.282;11.402;2023-12-20T00:54:04;96277.63;;;2.01;96.98
83195;BME280;73090;49.282;11.402;2023-12-20T00:58:06;96290.06;;;1.97;97.18
83195;BME280;73090;49.282;11.402;2023-12-20T01:02:08;96293.19;;;2.01;97.30
83195;BME280;73090;49.282;11.402;2023-12-20T01:06:11;96287.19;;;2.01;97.33
83195;BME280;73090;49.282;11.402;2023-12-20T01:10:13;96279.28;;;2.02;97.47
83195;BME280;73090;49.282;11.402;2023-12-20T01:14:16;96281.84;;;2.02;97.67
83195;BME280;73090;49.282;11.402;2023-12-20T01:18:18;96279.94;;;2.04;97.73
83195;BME280;73090;49.282;11.402;2023-12-20T01:22:20;96276.38;;;2.05;97.62
83195;BME280;73090;49.282;11.402;2023-12-20T01:26:22;96277.88;;;2.08;97.88
83195;BME280;73090;49.282;11.402;2023-12-20T01:30:24;96277.59;;;2.11;97.78
83195;BME280;73090;49.282;11.402;2023-12-20T01:34:29;96259.44;;;2.11;97.98
83195;BME280;73090;49.282;11.402;2023-12-20T01:38:30;96247.28;;;2.11;97.94
83195;BME280;73090;49.282;11.402;2023-12-20T01:42:32;96236.78;;;2.13;98.18
83195;BME280;73090;49.282;11.402;2023-12-20T01:46:34;96251.91;;;2.17;98.13
83195;BME280;73090;49.282;11.402;2023-12-20T01:50:36;96245.94;;;2.17;98.15
83195;BME280;73090;49.282;11.402;2023-12-20T01:54:38;96258.63;;;2.20;98.26
83195;BME280;73090;49.282;11.402;2023-12-20T01:58:45;96254.22;;;2.21;98.27
83195;BME280;73090;49.282;11.402;2023-12-20T02:02:47;96259.56;;;2.19;98.32
83195;BME280;73090;49.282;11.402;2023-12-20T02:06:52;96251.50;;;2.22;98.46
83195;BME280;73090;49.282;11.402;2023-12-20T02:10:55;96247.97;;;2.23;98.34
83195;BME280;73090;49.282;11.402;2023-12-20T02:14:57;96233.88;;;2.26;98.39
83195;BME280;73090;49.282;11.402;2023-12-20T02:18:59;96223.78;;;2.23;98.54
83195;BME280;73090;49.282;11.402;2023-12-20T02:23:01;96218.31;;;2.26;98.59
83195;BME280;73090;49.282;11.402;2023-12-20T02:27:03;96218.88;;;2.29;98.45
83195;BME280;73090;49.282;11.402;2023-12-20T02:31:04;96222.41;;;2.28;98.46
83195;BME280;73090;49.282;11.402;2023-12-20T02:35:06;96225.53;;;2.32;98.61
83195;BME280;73090;49.282;11.402;2023-12-20T02:39:08;96217.22;;;2.28;98.79
83195;BME280;73090;49.282;11.402;2023-12-20T02:43:10;96212.03;;;2.28;98.64
83195;BME280;73090;49.282;11.402;2023-12-20T02:47:11;96206.94;;;2.36;98.66
83195;BME280;73090;49.282;11.402;2023-12-20T02:51:13;96214.88;;;2.35;98.73
83195;BME280;73090;49.282;11.402;2023-12-20T02:55:15;96204.94;;;2.30;98.67
83195;BME280;73090;49.282;11.402;2023-12-20T02:59:16;96205.06;;;2.29;98.73
83195;BME280;73090;49.282;11.402;2023-12-20T03:03:18;96221.75;;;2.26;98.94
83195;BME280;73090;49.282;11.402;2023-12-20T03:07:20;96222.81;;;2.33;98.73
83195;BME280;73090;49.282;11.402;2023-12-20T03:11:22;96218.25;;;2.45;98.61
83195;BME280;73090;49.282;11.402;2023-12-20T03:15:27;96219.63;;;2.40;98.61
83195;BME280;73090;49.282;11.402;2023-12-20T03:19:29;96224.31;;;2.36;98.72
83195;BME280;73090;49.282;11.402;2023-12-20T03:23:31;96219.25;;;2.34;98.48
83195;BME280;73090;49.282;11.402;2023-12-20T03:27:37;96212.81;;;2.39;98.43
83195;BME280;73090;49.282;11.402;2023-12-20T03:31:39;96221.03;;;2.34;97.98
83195;BME280;73090;49.282;11.402;2023-12-20T03:35:41;96224.44;;;2.34;98.03
83195;BME280;73090;49.282;11.402;2023-12-20T03:39:43;96216.69;;;2.25;97.94
83195;BME280;73090;49.282;11.402;2023-12-20T03:43:46;96221.59;;;2.28;97.84
83195;BME280;73090;49.282;11.402;2023-12-20T03:47:48;96233.06;;;2.25;98.08
83195;BME280;73090;49.282;11.402;2023-12-20T03:51:50;96225.56;;;2.22;98.20
83195;BME280;73090;49.282;11.402;2023-12-20T03:55:52;96233.78;;;2.17;98.30
83195;BME280;73090;49.282;11.402;2023-12-20T03:59:54;96230.09;;;2.20;98.51
83195;BME280;73090;49.282;11.402;2023-12-20T04:03:55;96234.47;;;2.20;98.13
83195;BME280;73090;49.282;11.402;2023-12-20T04:07:59;96236.63;;;2.14;98.03
83195;BME280;73090;49.282;11.402;2023-12-20T04:12:00;96233.91;;;2.16;98.20
83195;BME280;73090;49.282;11.402;2023-12-20T04:16:02;96224.94;;;2.10;98.36
83195;BME280;73090;49.282;11.402;2023-12-20T04:20:05;96227.53;;;2.10;98.23
83195;BME280;73090;49.282;11.402;2023-12-20T04:24:07;96239.25;;;2.05;98.37
83195;BME280;73090;49.282;11.402;2023-12-20T04:28:09;96247.03;;;2.05;98.28
83195;BME280;73090;49.282;11.402;2023-12-20T04:32:11;96238.44;;;2.14;98.48
83195;BME280;73090;49.282;11.402;2023-12-20T04:36:13;96239.13;;;2.06;98.43
83195;BME280;73090;49.282;11.402;2023-12-20T04:40:15;96236.13;;;2.11;98.24
83195;BME280;73090;49.282;11.402;2023-12-20T04:44:16;96238.19;;;2.07;98.25
83195;BME280;73090;49.282;11.402;2023-12-20T04:48:18;96234.34;;;2.02;98.37
83195;BME280;73090;49.282;11.402;2023-12-20T04:52:20;96234.88;;;2.05;98.33
83195;BME280;73090;49.282;11.402;2023-12-20T04:56:21;96237.38;;;1.97;98.70
83195;BME280;73090;49.282;11.402;2023-12-20T05:00:23;96231.22;;;1.98;98.77
83195;BME280;73090;49.282;11.402;2023-12-20T05:04:25;96233.28;;;2.04;98.74
83195;BME280;73090;49.282;11.402;2023-12-20T05:08:27;96227.28;;;2.04;98.77
83195;BME280;73090;49.282;11.402;2023-12-20T05:12:29;96234.78;;;1.97;98.84
83195;BME280;73090;49.282;11.402;2023-12-20T05:16:30;96245.44;;;2.04;98.77
83195;BME280;73090;49.282;11.402;2023-12-20T05:20:32;96243.91;;;2.01;98.72
83195;BME280;73090;49.282;11.402;2023-12-20T05:24:34;96267.38;;;2.09;98.82
83195;BME280;73090;49.282;11.402;2023-12-20T05:28:35;96282.66;;;2.03;98.74
83195;BME280;73090;49.282;11.402;2023-12-20T05:32:37;96285.66;;;2.08;98.61
83195;BME280;73090;49.282;11.402;2023-12-20T05:36:39;96300.69;;;2.04;98.67
83195;BME280;73090;49.282;11.402;2023-12-20T05:40:40;96292.63;;;1.97;98.48
83195;BME280;73090;49.282;11.402;2023-12-20T05:44:42;96279.94;;;1.94;98.66
83195;BME280;73090;49.282;11.402;2023-12-20T05:48:44;96294.66;;;1.94;98.84
83195;BME280;73090;49.282;11.402;2023-12-20T05:52:45;96285.56;;;1.90;98.73
83195;BME280;73090;49.282;11.402;2023-12-20T05:56:47;96286.34;;;1.90;98.83
83195;BME280;73090;49.282;11.402;2023-12-20T06:00:49;96300.41;;;1.97;98.89
83195;BME280;73090;49.282;11.402;2023-12-20T06:04:52;96317.31;;;1.92;98.84
83195;BME280;73090;49.282;11.402;2023-12-20T06:08:54;96315.00;;;1.89;98.75
83195;BME280;73090;49.282;11.402;2023-12-20T06:12:55;96319.25;;;1.90;98.83
83195;BME280;73090;49.282;11.402;2023-12-20T06:16:57;96316.94;;;1.87;98.82
83195;BME280;73090;49.282;11.402;2023-12-20T06:20:59;96319.66;;;1.85;99.02
83195;BME280;73090;49.282;11.402;2023-12-20T06:25:01;96327.16;;;1.88;99.09
83195;BME280;73090;49.282;11.402;2023-12-20T06:29:02;96321.00;;;1.89;99.26
83195;BME280;73090;49.282;11.402;2023-12-20T06:33:04;96331.66;;;1.96;98.92
83195;BME280;73090;49.282;11.402;2023-12-20T06:37:08;96339.97;;;1.90;98.89
83195;BME280;73090;49.282;11.402;2023-12-20T06:41:13;96327.28;;;1.96;98.86
83195;BME280;73090;49.282;11.402;2023-12-20T06:45:15;96338.47;;;1.97;98.76
83195;BME280;73090;49.282;11.402;2023-12-20T06:49:17;96341.19;;;1.86;98.70
83195;BME280;73090;49.282;11.402;2023-12-20T06:53:20;96357.84;;;1.83;98.86
83195;BME280;73090;49.282;11.402;2023-12-20T06:57:21;96353.75;;;1.80;98.92
83195;BME280;73090;49.282;11.402;2023-12-20T07:01:24;96358.13;;;1.80;99.12
83195;BME280;73090;49.282;11.402;2023-12-20T07:05:26;96352.41;;;1.86;98.95
83195;BME280;73090;49.282;11.402;2023-12-20T07:09:28;96361.94;;;1.86;99.10
83195;BME280;73090;49.282;11.402;2023-12-20T07:13:30;96359.63;;;1.92;99.23
83195;BME280;73090;49.282;11.402;2023-12-20T07:17:32;96376.94;;;1.92;99.36
83195;BME280;73090;49.282;11.402;2023-12-20T07:21:34;96380.34;;;1.92;99.26
83195;BME280;73090;49.282;11.402;2023-12-20T07:25:36;96396.59;;;1.94;99.44
83195;BME280;73090;49.282;11.402;2023-12-20T07:29:38;96394.69;;;1.96;99.48
83195;BME280;73090;49.282;11.402;2023-12-20T07:33:39;96399.88;;;1.96;99.46
83195;BME280;73090;49.282;11.402;2023-12-20T07:37:41;96397.00;;;1.99;99.54
83195;BME280;73090;49.282;11.402;2023-12-20T07:41:43;96402.75;;;2.03;99.64
83195;BME280;73090;49.282;11.402;2023-12-20T07:45:47;96417.47;;;2.03;99.62
83195;BME280;73090;49.282;11.402;2023-12-20T07:49:49;96411.50;;;2.02;99.56
83195;BME280;73090;49.282;11.402;2023-12-20T07:53:51;96414.75;;;2.04;99.83
83195;BME280;73090;49.282;11.402;2023-12-20T07:57:53;96417.88;;;2.08;99.65
83195;BME280;73090;49.282;11.402;2023-12-20T08:01:55;96426.91;;;2.13;99.68
83195;BME280;73090;49.282;11.402;2023-12-20T08:05:58;96420.06;;;2.12;99.81
83195;BME280;73090;49.282;11.402;2023-12-20T08:10:01;96423.47;;;2.13;99.86
83195;BME280;73090;49.282;11.402;2023-12-20T08:14:02;96416.94;;;2.18;99.88
83195;BME280;73090;49.282;11.402;2023-12-20T08:18:04;96432.63;;;2.17;100.00
83195;BME280;73090;49.282;11.402;2023-12-20T08:22:06;96425.53;;;2.19;100.00
83195;BME280;73090;49.282;11.402;2023-12-20T08:26:08;96428.25;;;2.17;99.87
83195;BME280;73090;49.282;11.402;2023-12-20T08:30:10;96425.66;;;2.27;99.95
83195;BME280;73090;49.282;11.402;2023-12-20T08:34:12;96420.22;;;2.30;100.00
83195;BME280;73090;49.282;11.402;2023-12-20T08:38:15;96443.00;;;2.36;99.97
83195;BME280;73090;49.282;11.402;2023-12-20T08:42:19;96446.13;;;2.40;99.97
83195;BME280;73090;49.282;11.402;2023-12-20T08:46:21;96434.00;;;2.41;99.92
83195;BME280;73090;49.282;11.402;2023-12-20T08:50:22;96431.41;;;2.41;99.86
83195;BME280;73090;49.282;11.402;2023-12-20T08:54:24;96430.47;;;2.51;99.73
83195;BME280;73090;49.282;11.402;2023-12-20T08:58:26;96432.63;;;2.46;99.64
83195;BME280;73090;49.282;11.402;2023-12-20T09:02:28;96438.09;;;2.63;99.67
83195;BME280;73090;49.282;11.402;2023-12-20T09:06:30;96439.44;;;2.57;99.55
83195;BME280;73090;49.282;11.402;2023-12-20T09:10:32;96437.81;;;2.66;99.72
83195;BME280;73090;49.282;11.402;2023-12-20T09:14:34;96448.47;;;2.63;99.48
83195;BME280;73090;49.282;11.402;2023-12-20T09:18:35;96446.81;;;2.71;99.38
83195;BME280;73090;49.282;11.402;2023-12-20T09:22:37;96442.16;;;2.85;99.46
83195;BME280;73090;49.282;11.402;2023-12-20T09:26:40;96448.53;;;3.00;99.05
83195;BME280;73090;49.282;11.402;2023-12-20T09:30:43;96449.50;;;2.99;98.73
83195;BME280;73090;49.282;11.402;2023-12-20T09:34:47;96451.97;;;3.01;98.48
83195;BME280;73090;49.282;11.402;2023-12-20T09:38:50;96462.31;;;3.11;98.35
83195;BME280;73090;49.282;11.402;2023-12-20T09:43:19;96462.06;;;3.04;97.52
83195;BME280;73090;49.282;11.402;2023-12-20T09:47:24;96447.72;;;3.00;96.63
83195;BME280;73090;49.282;11.402;2023-12-20T09:51:28;96440.44;;;3.03;96.42
83195;BME280;73090;49.282;11.402;2023-12-20T09:55:31;96444.16;;;2.91;95.58
83195;BME280;73090;49.282;11.402;2023-12-20T09:59:34;96438.31;;;2.79;95.85
83195;BME280;73090;49.282;11.402;2023-12-20T10:03:38;96444.31;;;2.80;96.00
83195;BME280;73090;49.282;11.402;2023-12-20T10:07:41;96441.88;;;2.88;95.55
83195;BME280;73090;49.282;11.402;2023-12-20T10:11:44;96441.53;;;3.11;95.09
83195;BME280;73090;49.282;11.402;2023-12-20T10:15:45;96435.03;;;3.24;94.45
83195;BME280;73090;49.282;11.402;2023-12-20T10:19:47;96423.81;;;3.34;94.68
83195;BME280;73090;49.282;11.402;2023-12-20T10:23:49;96433.88;;;3.47;94.51
83195;BME280;73090;49.282;11.402;2023-12-20T10:28:12;96421.81;;;3.55;92.14
83195;BME280;73090;49.282;11.402;2023-12-20T10:36:27;96423.72;;;3.53;93.33
83195;BME280;73090;49.282;11.402;2023-12-20T10:40:29;96414.94;;;3.54;93.79
83195;BME280;73090;49.282;11.402;2023-12-20T10:44:31;96424.91;;;3.59;93.87
83195;BME280;73090;49.282;11.402;2023-12-20T10:48:34;96425.63;;;3.51;93.21
83195;BME280;73090;49.282;11.402;2023-12-20T10:52:37;96413.78;;;3.49;92.98
83195;BME280;73090;49.282;11.402;2023-12-20T10:56:40;96421.84;;;3.45;93.57
83195;BME280;73090;49.282;11.402;2023-12-20T11:00:43;96415.81;;;3.45;93.63
83195;BME280;73090;49.282;11.402;2023-12-20T11:04:53;96407.63;;;3.40;92.64
83195;BME280;73090;49.282;11.402;2023-12-20T11:09:26;96415.44;;;3.40;92.99
83195;BME280;73090;49.282;11.402;2023-12-20T11:13:43;96406.53;;;3.42;93.13
83195;BME280;73090;49.282;11.402;2023-12-20T11:17:55;96398.38;;;3.27;92.91
83195;BME280;73090;49.282;11.402;2023-12-20T11:21:58;96386.44;;;3.17;91.98
83195;BME280;73090;49.282;11.402;2023-12-20T11:25:59;96377.03;;;3.06;93.02
83195;BME280;73090;49.282;11.402;2023-12-20T11:30:04;96387.38;;;3.16;92.48
83195;BME280;73090;49.282;11.402;2023-12-20T11:34:13;96388.69;;;2.92;91.99
83195;BME280;73090;49.282;11.402;2023-12-20T11:38:20;96390.22;;;2.85;92.69
83195;BME280;73090;49.282;11.402;2023-12-20T11:42:22;96379.28;;;2.81;93.37
83195;BME280;73090;49.282;11.402;2023-12-20T11:46:25;96371.94;;;2.77;93.67
83195;BME280;73090;49.282;11.402;2023-12-20T11:50:27;96374.53;;;2.77;94.12
83195;BME280;73090;49.282;11.402;2023-12-20T11:54:30;96375.22;;;2.79;93.88
83195;BME280;73090;49.282;11.402;2023-12-20T11:58:32;96379.16;;;2.83;93.41
83195;BME280;73090;49.282;11.402;2023-12-20T12:02:34;96370.69;;;2.81;92.97
83195;BME280;73090;49.282;11.402;2023-12-20T12:06:36;96369.03;;;2.80;92.88
83195;BME280;73090;49.282;11.402;2023-12-20T12:10:38;96375.03;;;2.90;91.97
83195;BME280;73090;49.282;11.402;2023-12-20T12:14:39;96382.31;;;2.77;92.08
83195;BME280;73090;49.282;11.402;2023-12-20T12:18:45;96385.22;;;2.64;93.14
83195;BME280;73090;49.282;11.402;2023-12-20T12:27:01;96374.03;;;2.53;93.95
83195;BME280;73090;49.282;11.402;2023-12-20T12:31:03;96378.41;;;2.53;94.45
83195;BME280;73090;49.282;11.402;2023-12-20T12:35:05;96377.84;;;2.59;95.08
83195;BME280;73090;49.282;11.402;2023-12-20T12:39:08;96374.44;;;2.59;94.85
83195;BME280;73090;49.282;11.402;2023-12-20T12:43:09;96365.16;;;2.56;94.74
83195;BME280;73090;49.282;11.402;2023-12-20T12:47:11;96365.31;;;2.54;94.85
83195;BME280;73090;49.282;11.402;2023-12-20T12:51:13;96355.88;;;2.53;94.36
83195;BME280;73090;49.282;11.402;2023-12-20T12:55:15;96369.00;;;2.52;94.45
83195;BME280;73090;49.282;11.402;2023-12-20T12:59:17;96370.34;;;2.56;94.01
83195;BME280;73090;49.282;11.402;2023-12-20T13:03:19;96369.25;;;2.59;94.29
83195;BME280;73090;49.282;11.402;2023-12-20T13:07:21;96368.44;;;2.58;94.05
83195;BME280;73090;49.282;11.402;2023-12-20T13:11:23;96365.69;;;2.60;93.52
83195;BME280;73090;49.282;11.402;2023-12-20T13:15:24;96370.63;;;2.53;93.14
83195;BME280;73090;49.282;11.402;2023-12-20T13:19:26;96364.72;;;2.61;92.73
83195;BME280;73090;49.282;11.402;2023-12-20T13:23:28;96367.91;;;2.45;93.54
83195;BME280;73090;49.282;11.402;2023-12-20T13:27:29;96360.25;;;2.43;94.01
83195;BME280;73090;49.282;11.402;2023-12-20T13:31:31;96357.13;;;2.40;94.81
83195;BME280;73090;49.282;11.402;2023-12-20T13:35:34;96369.16;;;2.41;95.01
83195;BME280;73090;49.282;11.402;2023-12-20T13:39:36;96376.53;;;2.45;94.36
83195;BME280;73090;49.282;11.402;2023-12-20T13:43:38;96372.81;;;2.48;94.20
83195;BME280;73090;49.282;11.402;2023-12-20T13:47:39;96377.75;;;2.41;93.91
83195;BME280;73090;49.282;11.402;2023-12-20T13:51:41;96385.69;;;2.30;94.21
83195;BME280;73090;49.282;11.402;2023-12-20T13:55:42;96383.47;;;2.45;94.77
83195;BME280;73090;49.282;11.402;2023-12-20T13:59:44;96372.03;;;2.28;94.32
83195;BME280;73090;49.282;11.402;2023-12-20T14:03:46;96375.72;;;2.25;94.14
83195;BME280;73090;49.282;11.402;2023-12-20T14:07:48;96370.81;;;2.22;94.46
83195;BME280;73090;49.282;11.402;2023-12-20T14:11:50;96360.03;;;2.17;94.94
83195;BME280;73090;49.282;11.402;2023-12-20T14:15:52;96364.41;;;2.16;95.06
83195;BME280;73090;49.282;11.402;2023-12-20T14:19:55;96366.03;;;2.17;94.72
83195;BME280;73090;49.282;11.402;2023-12-20T14:23:57;96360.84;;;2.17;94.32
83195;BME280;73090;49.282;11.402;2023-12-20T14:27:59;96354.31;;;2.13;94.13
83195;BME280;73090;49.282;11.402;2023-12-20T14:32:01;96351.44;;;2.16;93.26
83195;BME280;73090;49.282;11.402;2023-12-20T14:36:07;96353.75;;;2.10;92.61
83195;BME280;73090;49.282;11.402;2023-12-20T14:40:10;96355.66;;;2.08;93.45
83195;BME280;73090;49.282;11.402;2023-12-20T14:44:17;96347.47;;;2.03;93.16
83195;BME280;73090;49.282;11.402;2023-12-20T14:48:19;96331.41;;;1.99;92.86
83195;BME280;73090;49.282;11.402;2023-12-20T14:52:21;96335.75;;;1.98;93.09
83195;BME280;73090;49.282;11.402;2023-12-20T14:56:23;96336.97;;;1.94;93.58
83195;BME280;73090;49.282;11.402;2023-12-20T15:00:28;96340.66;;;1.92;93.01
83195;BME280;73090;49.282;11.402;2023-12-20T15:04:31;96331.81;;;1.94;93.32
83195;BME280;73090;49.282;11.402;2023-12-20T15:08:33;96325.91;;;1.92;92.55
83195;BME280;73090;49.282;11.402;2023-12-20T15:12:34;96332.06;;;1.91;92.96
83195;BME280;73090;49.282;11.402;2023-12-20T15:16:36;96326.63;;;1.85;93.66
83195;BME280;73090;49.282;11.402;2023-12-20T15:20:38;96339.84;;;1.81;92.76
83195;BME280;73090;49.282;11.402;2023-12-20T15:24:41;96340.13;;;1.78;93.64
83195;BME280;73090;49.282;11.402;2023-12-20T15:28:43;96340.78;;;1.80;93.13
83195;BME280;73090;49.282;11.402;2023-12-20T15:32:48;96344.19;;;1.81;93.25
83195;BME280;73090;49.282;11.402;2023-12-20T15:36:50;96339.28;;;1.88;93.11
83195;BME280;73090;49.282;11.402;2023-12-20T15:40:52;96342.84;;;1.87;92.80
83195;BME280;73090;49.282;11.402;2023-12-20T15:44:54;96333.16;;;1.89;91.83
83195;BME280;73090;49.282;11.402;2023-12-20T15:48:56;96344.19;;;1.81;93.07
83195;BME280;73090;49.282;11.402;2023-12-20T15:52:58;96324.72;;;1.77;92.96
83195;BME280;73090;49.282;11.402;2023-12-20T15:57:00;96326.91;;;1.81;92.11
83195;BME280;73090;49.282;11.402;2023-12-20T16:01:01;96312.56;;;1.87;92.21
83195;BME280;73090;49.282;11.402;2023-12-20T16:05:03;96318.28;;;1.81;92.69
83195;BME280;73090;49.282;11.402;2023-12-20T16:09:05;96320.88;;;1.81;92.91
83195;BME280;73090;49.282;11.402;2023-12-20T16:13:07;96322.91;;;1.87;92.62
83195;BME280;73090;49.282;11.402;2023-12-20T16:17:10;96333.56;;;1.84;92.51
83195;BME280;73090;49.282;11.402;2023-12-20T16:21:12;96335.06;;;1.77;92.55
83195;BME280;73090;49.282;11.402;2023-12-20T16:25:13;96335.63;;;1.71;92.88
83195;BME280;73090;49.282;11.402;2023-12-20T16:29:15;96323.06;;;1.76;93.04
83195;BME280;73090;49.282;11.402;2023-12-20T16:33:17;96311.34;;;1.81;92.95
83195;BME280;73090;49.282;11.402;2023-12-20T16:37:19;96304.78;;;1.77;92.44
83195;BME280;73090;49.282;11.402;2023-12-20T16:41:20;96300.53;;;1.76;92.34
83195;BME280;73090;49.282;11.402;2023-12-20T16:45:23;96291.56;;;1.80;92.42
83195;BME280;73090;49.282;11.402;2023-12-20T16:49:24;96301.91;;;1.80;92.54
83195;BME280;73090;49.282;11.402;2023-12-20T16:53:26;96312.69;;;1.76;92.38
83195;BME280;73090;49.282;11.402;2023-12-20T16:57:29;96321.69;;;1.72;92.61
83195;BME280;73090;49.282;11.402;2023-12-20T17:01:31;96322.78;;;1.69;92.76
83195;BME280;73090;49.282;11.402;2023-12-20T17:05:33;96325.66;;;1.76;92.60
83195;BME280;73090;49.282;11.402;2023-12-20T17:09:35;96330.44;;;1.71;92.47
83195;BME280;73090;49.282;11.402;2023-12-20T17:13:37;96333.16;;;1.69;93.12
83195;BME280;73090;49.282;11.402;2023-12-20T17:17:39;96331.25;;;1.81;92.93
83195;BME280;73090;49.282;11.402;2023-12-20T17:21:41;96347.31;;;1.75;92.47
83195;BME280;73090;49.282;11.402;2023-12-20T17:25:42;96340.25;;;1.77;92.27
83195;BME280;73090;49.282;11.402;2023-12-20T17:29:44;96337.25;;;1.81;92.08
83195;BME280;73090;49.282;11.402;2023-12-20T17:33:46;96336.16;;;1.84;92.00
83195;BME280;73090;49.282;11.402;2023-12-20T17:37:47;96330.44;;;1.90;91.84
83195;BME280;73090;49.282;11.402;2023-12-20T17:41:50;96329.59;;;1.99;90.67
83195;BME280;73090;49.282;11.402;2023-12-20T17:45:52;96335.75;;;1.89;90.92
83195;BME280;73090;49.282;11.402;2023-12-20T17:49:54;96333.00;;;1.90;91.23
83195;BME280;73090;49.282;11.402;2023-12-20T17:53:56;96342.03;;;1.86;91.16
83195;BME280;73090;49.282;11.402;2023-12-20T17:57:59;96337.13;;;2.03;90.57
83195;BME280;73090;49.282;11.402;2023-12-20T18:02:01;96339.44;;;1.96;90.65
83195;BME280;73090;49.282;11.402;2023-12-20T18:06:04;96343.91;;;1.94;91.42
83195;BME280;73090;49.282;11.402;2023-12-20T18:10:06;96333.81;;;1.91;91.53
83195;BME280;73090;49.282;11.402;2023-12-20T18:14:08;96341.72;;;1.89;91.79
83195;BME280;73090;49.282;11.402;2023-12-20T18:18:11;96348.69;;;1.98;91.52
83195;BME280;73090;49.282;11.402;2023-12-20T18:22:14;96338.47;;;2.07;91.49
83195;BME280;73090;49.282;11.402;2023-12-20T18:26:16;96342.84;;;1.96;91.50
83195;BME280;73090;49.282;11.402;2023-12-20T18:30:18;96333.28;;;1.97;91.66
83195;BME280;73090;49.282;11.402;2023-12-20T18:34:20;96332.75;;;1.93;91.86
83195;BME280;73090;49.282;11.402;2023-12-20T18:38:22;96335.34;;;1.93;92.04
83195;BME280;73090;49.282;11.402;2023-12-20T18:42:30;96340.13;;;1.98;92.04
83195;BME280;73090;49.282;11.402;2023-12-20T18:46:32;96334.66;;;1.91;92.59
83195;BME280;73090;49.282;11.402;2023-12-20T18:50:34;96339.84;;;1.91;92.84
83195;BME280;73090;49.282;11.402;2023-12-20T18:54:35;96331.09;;;2.12;92.66
83195;BME280;73090;49.282;11.402;2023-12-20T18:58:37;96336.00;;;1.95;92.96
83195;BME280;73090;49.282;11.402;2023-12-20T19:02:40;96324.84;;;1.95;93.19
83195;BME280;73090;49.282;11.402;2023-12-20T19:06:42;96321.03;;;1.99;93.31
83195;BME280;73090;49.282;11.402;2023-12-20T19:10:43;96321.56;;;1.93;93.55
83195;BME280;73090;49.282;11.402;2023-12-20T19:14:45;96321.03;;;1.99;93.94
83195;BME280;73090;49.282;11.402;2023-12-20T19:18:47;96320.06;;;1.90;94.09
83195;BME280;73090;49.282;11.402;2023-12-20T19:22:48;96314.47;;;1.95;93.83
83195;BME280;73090;49.282;11.402;2023-12-20T19:26:50;96308.59;;;1.93;94.14
83195;BME280;73090;49.282;11.402;2023-12-20T19:30:52;96306.56;;;1.96;94.18
83195;BME280;73090;49.282;11.402;2023-12-20T19:34:54;96313.66;;;1.94;94.41
83195;BME280;73090;49.282;11.402;2023-12-20T19:38:56;96302.03;;;1.89;94.87
83195;BME280;73090;49.282;11.402;2023-12-20T19:42:58;96305.44;;;1.89;94.82
83195;BME280;73090;49.282;11.402;2023-12-20T19:47:00;96308.47;;;1.85;94.90
83195;BME280;73090;49.282;11.402;2023-12-20T19:51:02;96302.03;;;1.89;94.91
83195;BME280;73090;49.282;11.402;2023-12-20T19:55:04;96295.66;;;1.83;95.08
83195;BME280;73090;49.282;11.402;2023-12-20T19:59:06;96286.22;;;1.92;94.93
83195;BME280;73090;49.282;11.402;2023-12-20T20:03:07;96293.75;;;1.85;94.92
83195;BME280;73090;49.282;11.402;2023-12-20T20:07:09;96289.50;;;1.84;94.87
83195;BME280;73090;49.282;11.402;2023-12-20T20:11:16;96283.78;;;1.80;95.07
83195;BME280;73090;49.282;11.402;2023-12-20T20:15:33;96291.56;;;1.80;95.07
83195;BME280;73090;49.282;11.402;2023-12-20T20:19:35;96273.81;;;1.76;95.02
83195;BME280;73090;49.282;11.402;2023-12-20T20:23:36;96274.75;;;1.75;95.18
83195;BME280;73090;49.282;11.402;2023-12-20T20:27:38;96273.53;;;1.79;95.40
83195;BME280;73090;49.282;11.402;2023-12-20T20:31:40;96277.50;;;1.83;94.78
83195;BME280;73090;49.282;11.402;2023-12-20T20:35:42;96278.19;;;1.85;94.84
83195;BME280;73090;49.282;11.402;2023-12-20T20:39:44;96273.66;;;1.87;94.77
83195;BME280;73090;49.282;11.402;2023-12-20T20:43:49;96270.94;;;1.89;94.43
83195;BME280;73090;49.282;11.402;2023-12-20T20:47:51;96281.84;;;1.83;94.41
83195;BME280;73090;49.282;11.402;2023-12-20T20:52:11;96281.19;;;1.80;94.55
83195;BME280;73090;49.282;11.402;2023-12-20T20:56:13;96271.63;;;1.81;94.37
83195;BME280;73090;49.282;11.402;2023-12-20T21:00:15;96257.88;;;1.80;94.79
83195;BME280;73090;49.282;11.402;2023-12-20T21:04:17;96252.81;;;1.79;94.71
83195;BME280;73090;49.282;11.402;2023-12-20T21:08:19;96246.81;;;1.78;94.79
83195;BME280;73090;49.282;11.402;2023-12-20T21:12:21;96248.31;;;1.81;94.42
83195;BME280;73090;49.282;11.402;2023-12-20T21:16:22;96233.72;;;1.90;93.98
83195;BME280;73090;49.282;11.402;2023-12-20T21:20:26;96230.72;;;1.85;93.56
83195;BME280;73090;49.282;11.402;2023-12-20T21:24:28;96239.28;;;1.95;93.24
83195;BME280;73090;49.282;11.402;2023-12-20T21:28:33;96235.19;;;1.92;92.83
83195;BME280;73090;49.282;11.402;2023-12-20T21:32:38;96227.69;;;1.99;92.92